createdAt,value
2023-05-11T00:00:22.167Z,14.25
2023-05-11T00:02:48.752Z,17.30
2023-05-11T00:05:15.418Z,14.63
2023-05-11T00:07:41.857Z,21.42
2023-05-11T00:10:09.247Z,15.15
2023-05-11T00:12:37.099Z,16.35
2023-05-11T00:15:04.159Z,13.68
2023-05-11T00:17:30.816Z,12.60
2023-05-11T00:19:57.389Z,15.50
2023-05-11T00:22:23.866Z,15.55
2023-05-11T00:24:50.334Z,14.88
2023-05-11T00:27:16.835Z,18.13
2023-05-11T00:29:44.693Z,18.08
2023-05-11T00:32:11.253Z,19.13
2023-05-11T00:34:37.741Z,19.27
2023-05-11T00:37:05.083Z,16.83
2023-05-11T00:39:31.554Z,16.92
2023-05-11T00:41:58.052Z,18.92
2023-05-11T00:44:24.513Z,15.55
2023-05-11T00:46:52.668Z,17.13
2023-05-11T00:49:19.208Z,17.65
2023-05-11T00:51:45.721Z,16.48
2023-05-11T00:54:12.706Z,17.25
2023-05-11T00:56:39.447Z,18.88
2023-05-11T00:59:05.950Z,18.52
2023-05-11T01:01:32.446Z,19.23
2023-05-11T01:04:00.286Z,17.80
2023-05-11T01:06:31.860Z,18.50
2023-05-11T01:09:03.646Z,20.52
2023-05-11T01:11:37.333Z,19.63
2023-05-11T01:14:09.258Z,19.35
2023-05-11T01:16:40.396Z,19.77
2023-05-11T01:19:18.184Z,22.02
2023-05-11T01:21:48.292Z,20.95
2023-05-11T01:24:31.718Z,22.58
2023-05-11T01:27:23.181Z,20.25
2023-05-11T01:30:26.098Z,20.23
2023-05-11T01:32:54.975Z,21.10
2023-05-11T01:35:24.724Z,22.20
2023-05-11T01:37:55.226Z,20.77
2023-05-11T01:40:25.803Z,20.85
2023-05-11T01:42:59.958Z,19.73
2023-05-11T01:45:29.730Z,21.85
2023-05-11T01:47:57.761Z,18.17
2023-05-11T01:50:25.825Z,18.35
2023-05-11T01:52:53.383Z,22.42
2023-05-11T01:55:22.087Z,20.13
2023-05-11T01:57:52.913Z,17.80
2023-05-11T02:00:20.561Z,17.42
2023-05-11T02:02:49.731Z,15.30
2023-05-11T02:05:20.646Z,17.13
2023-05-11T02:07:49.096Z,17.80
2023-05-11T02:10:16.777Z,14.07
2023-05-11T02:12:45.025Z,17.13
2023-05-11T02:15:12.727Z,13.38
2023-05-11T02:17:40.399Z,16.85
2023-05-11T02:20:10.718Z,19.05
2023-05-11T02:22:38.421Z,26.30
2023-05-11T02:25:06.790Z,16.77
2023-05-11T02:27:33.342Z,17.08
2023-05-11T02:29:59.909Z,14.90
2023-05-11T02:32:28.269Z,14.45
2023-05-11T02:35:00.406Z,16.10
2023-05-11T02:37:30.878Z,15.90
2023-05-11T02:40:01.189Z,14.02
2023-05-11T02:42:30.673Z,18.70
2023-05-11T02:45:00.525Z,17.73
2023-05-11T02:47:29.523Z,14.38
2023-05-11T02:49:58.967Z,14.77
2023-05-11T02:52:27.058Z,14.15
2023-05-11T02:54:56.672Z,15.70
2023-05-11T02:57:24.325Z,19.17
2023-05-11T02:59:51.625Z,13.43
2023-05-11T03:02:18.335Z,14.40
2023-05-11T03:04:44.907Z,13.63
2023-05-11T03:07:11.478Z,15.90
2023-05-11T03:09:38.069Z,13.00
2023-05-11T03:12:06.972Z,17.23
2023-05-11T03:14:34.716Z,16.17
2023-05-11T03:17:02.680Z,18.95
2023-05-11T03:19:30.890Z,20.33
2023-05-11T03:21:58.584Z,17.40
2023-05-11T03:24:25.968Z,14.55
2023-05-11T03:26:54.061Z,13.82
2023-05-11T03:29:23.949Z,12.13
2023-05-11T03:31:51.401Z,13.73
2023-05-11T03:34:18.102Z,16.48
2023-05-11T03:36:46.755Z,17.98
2023-05-11T03:39:16.138Z,20.58
2023-05-11T03:41:44.540Z,16.08
2023-05-11T03:44:13.095Z,15.35
2023-05-11T03:46:43.576Z,14.65
2023-05-11T03:49:13.517Z,13.88
2023-05-11T03:51:41.101Z,21.95
2023-05-11T03:54:07.817Z,21.65
2023-05-11T03:56:36.174Z,15.57
2023-05-11T03:59:02.770Z,17.42
2023-05-11T04:01:29.940Z,19.67
2023-05-11T04:03:57.914Z,16.42
2023-05-11T04:06:24.555Z,18.85
2023-05-11T04:08:51.070Z,19.20
2023-05-11T04:11:17.591Z,20.58
2023-05-11T04:13:44.117Z,21.80
2023-05-11T04:16:10.665Z,25.63
2023-05-11T04:18:37.348Z,23.55
2023-05-11T04:21:05.426Z,22.40
2023-05-11T04:23:31.882Z,23.65
2023-05-11T04:25:58.383Z,21.70
2023-05-11T04:28:24.949Z,21.40
2023-05-11T04:30:54.293Z,23.73
2023-05-11T04:33:21.061Z,27.50
2023-05-11T04:35:50.095Z,23.30
2023-05-11T04:38:18.006Z,25.48
2023-05-11T04:40:44.586Z,24.55
2023-05-11T04:43:11.059Z,23.40
2023-05-11T04:45:37.547Z,27.90
2023-05-11T04:48:04.813Z,26.40
2023-05-11T04:50:31.376Z,26.55
2023-05-11T04:52:57.888Z,26.25
2023-05-11T04:55:25.767Z,29.73
2023-05-11T04:57:52.247Z,25.20
2023-05-11T05:00:20.121Z,24.90
2023-05-11T05:02:47.155Z,26.90
2023-05-11T05:05:13.736Z,30.85
2023-05-11T05:07:40.210Z,31.85
2023-05-11T05:10:07.306Z,28.77
2023-05-11T05:12:35.258Z,29.75
2023-05-11T05:15:01.819Z,34.10
2023-05-11T05:17:28.532Z,29.80
2023-05-11T05:19:55.091Z,30.48
2023-05-11T05:22:21.620Z,30.60
2023-05-11T05:24:48.129Z,26.20
2023-05-11T05:27:14.664Z,26.67
2023-05-11T05:29:42.513Z,27.50
2023-05-11T05:32:09.006Z,29.25
2023-05-11T05:34:35.508Z,29.33
2023-05-11T05:37:02.037Z,25.38
2023-05-11T05:39:28.535Z,29.88
2023-05-11T05:41:55.094Z,24.83
2023-05-11T05:44:21.616Z,27.30
2023-05-11T05:46:49.438Z,28.88
2023-05-11T05:49:15.946Z,28.50
2023-05-11T05:51:42.489Z,23.02
2023-05-11T05:54:09.000Z,24.55
2023-05-11T05:56:35.516Z,24.08
2023-05-11T05:59:02.068Z,25.83
2023-05-11T06:01:28.626Z,25.23
2023-05-11T06:03:56.656Z,25.48
2023-05-11T06:06:23.437Z,35.85
2023-05-11T06:08:49.952Z,24.73
2023-05-11T06:11:16.491Z,28.48
2023-05-11T06:13:43.033Z,27.73
2023-05-11T06:16:09.593Z,21.60
2023-05-11T06:18:36.119Z,25.75
2023-05-11T06:21:04.008Z,28.77
2023-05-11T06:23:30.479Z,20.95
2023-05-11T06:25:57.093Z,22.33
2023-05-11T06:28:23.624Z,22.50
2023-05-11T06:30:50.188Z,24.98
2023-05-11T06:33:16.773Z,23.58
2023-05-11T06:35:43.314Z,20.92
2023-05-11T06:38:11.112Z,27.52
2023-05-11T06:40:37.665Z,22.95
2023-05-11T06:43:04.175Z,23.02
2023-05-11T06:45:30.849Z,25.30
2023-05-11T06:47:57.523Z,20.65
2023-05-11T06:50:27.188Z,22.15
2023-05-11T06:52:54.124Z,25.08
2023-05-11T06:55:22.736Z,25.30
2023-05-11T06:57:49.227Z,21.80
2023-05-11T07:00:17.116Z,28.88
2023-05-11T07:02:43.803Z,23.33
2023-05-11T07:05:10.307Z,21.15
2023-05-11T07:07:36.847Z,24.35
2023-05-11T07:10:03.537Z,21.05
2023-05-11T07:12:31.421Z,25.75
2023-05-11T07:14:58.022Z,20.98
2023-05-11T07:17:24.653Z,22.85
2023-05-11T07:19:51.322Z,25.75
2023-05-11T07:22:17.850Z,23.55
2023-05-11T07:24:44.374Z,32.03
2023-05-11T07:27:10.847Z,25.17
2023-05-11T07:29:38.721Z,26.92
2023-05-11T07:32:06.132Z,26.13
2023-05-11T07:34:32.812Z,25.45
2023-05-11T07:36:59.285Z,31.77
2023-05-11T07:39:25.781Z,29.80
2023-05-11T07:41:52.268Z,28.50
2023-05-11T07:44:18.766Z,28.73
2023-05-11T07:46:46.714Z,28.55
2023-05-11T07:49:18.927Z,37.13
2023-05-11T07:51:51.882Z,27.90
2023-05-11T07:54:20.230Z,35.10
2023-05-11T07:56:48.304Z,33.20
2023-05-11T07:59:14.848Z,35.47
2023-05-11T08:01:41.459Z,36.28
2023-05-11T08:04:09.483Z,30.27
2023-05-11T08:06:36.057Z,35.80
2023-05-11T08:09:02.593Z,32.38
2023-05-11T08:11:29.130Z,33.33
2023-05-11T08:13:55.650Z,33.25
2023-05-11T08:16:22.165Z,39.33
2023-05-11T08:18:48.679Z,40.70
2023-05-11T08:21:16.590Z,43.50
2023-05-11T08:23:44.635Z,42.28
2023-05-11T08:26:11.730Z,42.35
2023-05-11T08:28:38.228Z,47.90
2023-05-11T08:31:05.085Z,43.20
2023-05-11T08:33:38.230Z,40.90
2023-05-11T08:36:06.756Z,47.53
2023-05-11T08:38:34.802Z,44.55
2023-05-11T08:41:01.700Z,48.90
2023-05-11T08:43:29.166Z,48.70
2023-05-11T08:46:00.487Z,53.67
2023-05-11T08:48:27.152Z,60.40
2023-05-11T08:50:53.731Z,64.03
2023-05-11T08:53:20.392Z,60.53
2023-05-11T08:55:49.854Z,64.40
2023-05-11T08:58:17.770Z,63.53
2023-05-11T09:00:44.362Z,66.93
2023-05-11T09:03:11.504Z,57.45
2023-05-11T09:05:38.521Z,54.17
2023-05-11T09:08:07.481Z,58.65
2023-05-11T09:10:35.822Z,39.28
2023-05-11T09:13:03.666Z,26.90
2023-05-11T09:15:36.964Z,24.63
2023-05-11T09:18:04.477Z,30.52
2023-05-11T09:20:33.895Z,25.58
2023-05-11T09:23:00.996Z,28.02
2023-05-11T09:25:30.080Z,25.23
2023-05-11T09:27:59.547Z,21.50
2023-05-11T09:30:27.796Z,24.17
2023-05-11T09:32:55.673Z,22.10
2023-05-11T09:35:24.329Z,20.92
2023-05-11T09:38:00.766Z,23.92
2023-05-11T09:40:33.488Z,23.98
2023-05-11T09:43:01.247Z,20.10
2023-05-11T09:45:42.883Z,18.27
2023-05-11T09:48:24.395Z,24.13
2023-05-11T09:50:52.335Z,24.02
2023-05-11T09:53:18.870Z,19.35
2023-05-11T09:55:51.254Z,20.42
2023-05-11T09:58:17.767Z,22.27
2023-05-11T10:00:50.257Z,18.25
2023-05-11T10:03:17.141Z,16.30
2023-05-11T10:05:56.733Z,19.13
2023-05-11T10:08:28.043Z,18.00
2023-05-11T10:10:55.728Z,21.40
2023-05-11T10:13:23.639Z,15.63
2023-05-11T10:15:52.446Z,15.70
2023-05-11T10:18:20.430Z,20.02
2023-05-11T10:20:47.560Z,17.98
2023-05-11T10:23:14.451Z,18.33
2023-05-11T10:25:41.184Z,12.63
2023-05-11T10:28:08.823Z,16.50
2023-05-11T10:30:35.703Z,18.20
2023-05-11T10:33:03.858Z,15.98
2023-05-11T10:35:31.548Z,18.92
2023-05-11T10:37:58.698Z,18.63
2023-05-11T10:40:25.323Z,19.95
2023-05-11T10:43:21.565Z,20.58
2023-05-11T10:45:52.734Z,12.82
2023-05-11T10:48:54.810Z,17.90
2023-05-11T10:51:56.507Z,12.63
2023-05-11T10:54:38.574Z,19.58
2023-05-11T10:57:13.062Z,14.90
2023-05-11T11:00:06.089Z,14.18
2023-05-11T11:02:32.752Z,17.73
2023-05-11T11:05:00.853Z,19.55
2023-05-11T11:07:27.442Z,14.50
2023-05-11T11:09:56.597Z,14.95
2023-05-11T11:12:24.230Z,15.95
2023-05-11T11:14:56.455Z,15.75
2023-05-11T11:17:24.287Z,14.82
2023-05-11T11:19:50.904Z,14.90
2023-05-11T11:22:44.326Z,13.43
2023-05-11T11:25:11.848Z,17.23
2023-05-11T11:27:56.974Z,20.20
2023-05-11T11:30:24.753Z,15.55
2023-05-11T11:32:52.688Z,16.35
2023-05-11T11:35:47.514Z,14.73
2023-05-11T11:38:17.499Z,21.90
2023-05-11T11:40:51.108Z,17.30
2023-05-11T11:43:20.253Z,18.92
2023-05-11T11:45:51.389Z,17.08
2023-05-11T11:48:21.900Z,19.08
2023-05-11T11:51:00.152Z,17.50
2023-05-11T11:54:03.365Z,20.10
2023-05-11T11:56:44.892Z,20.75
2023-05-11T11:59:12.284Z,15.38
2023-05-11T12:01:39.892Z,16.55
2023-05-11T12:04:20.068Z,17.92
2023-05-11T12:06:56.251Z,18.67
2023-05-11T12:09:22.776Z,19.20
2023-05-11T12:11:51.213Z,15.88
2023-05-11T12:14:19.071Z,19.88
2023-05-11T12:17:00.540Z,18.20
2023-05-11T12:19:27.156Z,14.05
2023-05-11T12:21:53.756Z,14.70
2023-05-11T12:24:21.017Z,19.00
2023-05-11T12:26:47.575Z,18.02
2023-05-11T12:29:15.766Z,18.90
2023-05-11T12:31:44.345Z,16.45
2023-05-11T12:34:14.713Z,20.10
2023-05-11T12:36:41.359Z,16.33
2023-05-11T12:39:08.008Z,15.02
2023-05-11T12:41:34.875Z,14.85
2023-05-11T12:44:01.846Z,14.45
2023-05-11T12:46:29.975Z,14.45
2023-05-11T12:48:58.517Z,13.88
2023-05-11T12:51:48.528Z,16.00
2023-05-11T12:54:32.013Z,13.75
2023-05-11T12:56:59.740Z,13.18
2023-05-11T12:59:35.051Z,16.33
2023-05-11T13:02:07.663Z,11.77
2023-05-11T13:04:34.189Z,14.27
2023-05-11T13:07:00.995Z,13.55
2023-05-11T13:09:28.043Z,14.73
2023-05-11T13:12:11.576Z,23.10
2023-05-11T13:14:38.422Z,23.60
2023-05-11T13:17:06.511Z,25.10
2023-05-11T13:19:33.142Z,22.08
2023-05-11T13:22:00.256Z,21.88
2023-05-11T13:24:26.856Z,23.27
2023-05-11T13:26:53.998Z,26.45
2023-05-11T13:29:20.518Z,23.95
2023-05-11T13:31:48.536Z,23.10
2023-05-11T13:34:16.665Z,26.00
2023-05-11T13:36:43.610Z,30.90
2023-05-11T13:39:10.089Z,26.02
2023-05-11T13:41:36.813Z,22.65
2023-05-11T13:44:03.543Z,28.92
2023-05-11T13:46:30.106Z,32.35
2023-05-11T13:48:56.730Z,27.67
2023-05-11T13:51:24.564Z,31.00
2023-05-11T13:53:51.055Z,35.10
2023-05-11T13:56:17.577Z,33.13
2023-05-11T13:58:44.057Z,32.05
2023-05-11T14:01:10.568Z,37.15
2023-05-11T14:03:37.148Z,30.15
2023-05-11T14:06:04.066Z,30.05
2023-05-11T14:08:31.925Z,33.85
2023-05-11T14:10:58.430Z,32.25
2023-05-11T14:13:25.025Z,37.97
2023-05-11T14:15:51.955Z,30.77
2023-05-11T14:18:18.711Z,34.40
2023-05-11T14:20:45.341Z,29.77
2023-05-11T14:23:11.841Z,29.80
2023-05-11T14:25:39.705Z,32.63
2023-05-11T14:28:06.192Z,30.25
2023-05-11T14:30:32.762Z,32.47
2023-05-11T14:32:59.431Z,24.95
2023-05-11T14:35:26.015Z,22.98
2023-05-11T14:37:52.543Z,34.80
2023-05-11T14:40:19.133Z,32.70
2023-05-11T14:42:46.944Z,40.20
2023-05-11T14:45:13.460Z,36.55
2023-05-11T14:47:40.104Z,37.58
2023-05-11T14:50:08.197Z,37.92
2023-05-11T14:52:34.706Z,32.80
2023-05-11T14:55:01.254Z,33.70
2023-05-11T14:57:27.845Z,32.50
2023-05-11T15:00:00.117Z,33.00
2023-05-11T15:02:27.549Z,28.35
2023-05-11T15:04:54.131Z,33.45
2023-05-11T15:07:20.671Z,34.72
2023-05-11T15:09:47.141Z,28.98
2023-05-11T15:12:13.675Z,33.58
2023-05-11T15:14:40.136Z,32.78
2023-05-11T15:17:08.073Z,31.75
2023-05-11T15:19:34.603Z,30.73
2023-05-11T15:22:01.073Z,29.58
2023-05-11T15:24:27.589Z,27.63
2023-05-11T15:26:54.042Z,32.53
2023-05-11T15:29:20.531Z,35.38
2023-05-11T15:31:47.106Z,37.25
2023-05-11T15:34:14.980Z,36.65
2023-05-11T15:36:41.555Z,34.55
2023-05-11T15:39:08.075Z,31.15
2023-05-11T15:41:34.627Z,35.15
2023-05-11T15:44:01.146Z,37.70
2023-05-11T15:46:28.060Z,41.78
2023-05-11T15:48:56.295Z,43.22
2023-05-11T15:51:25.648Z,39.13
2023-05-11T15:53:52.186Z,40.13
2023-05-11T15:56:18.649Z,37.85
2023-05-11T15:58:45.146Z,39.42
2023-05-11T16:01:11.918Z,35.58
2023-05-11T16:03:38.704Z,38.30
2023-05-11T16:06:06.077Z,40.30
2023-05-11T16:08:34.431Z,35.42
2023-05-11T16:11:01.022Z,38.58
2023-05-11T16:13:27.510Z,36.97
2023-05-11T16:15:54.065Z,39.38
2023-05-11T16:18:20.689Z,41.83
2023-05-11T16:20:47.293Z,42.53
2023-05-11T16:23:13.863Z,41.40
2023-05-11T16:25:41.673Z,41.60
2023-05-11T16:28:08.167Z,33.10
2023-05-11T16:30:34.739Z,39.17
2023-05-11T16:33:01.267Z,35.78
2023-05-11T16:35:27.868Z,36.28
2023-05-11T16:37:54.349Z,34.42
2023-05-11T16:40:21.369Z,31.38
2023-05-11T16:42:49.600Z,26.83
2023-05-11T16:45:16.390Z,23.10
2023-05-11T16:47:43.208Z,23.33
2023-05-11T16:50:10.564Z,30.08
2023-05-11T16:52:37.037Z,40.53
2023-05-11T16:55:04.056Z,35.30
2023-05-11T16:57:30.577Z,33.25
2023-05-11T16:59:58.455Z,30.50
2023-05-11T17:02:24.998Z,32.40
2023-05-11T17:04:51.546Z,35.72
2023-05-11T17:07:18.044Z,30.45
2023-05-11T17:09:44.512Z,35.92
2023-05-11T17:12:11.324Z,37.03
2023-05-11T17:14:37.807Z,31.65
2023-05-11T17:17:05.777Z,34.58
2023-05-11T17:19:32.284Z,31.13
2023-05-11T17:21:58.784Z,33.25
2023-05-11T17:24:25.562Z,33.35
2023-05-11T17:26:52.106Z,28.92
2023-05-11T17:29:18.621Z,31.85
2023-05-11T17:31:45.586Z,41.72
2023-05-11T17:34:13.733Z,31.55
2023-05-11T17:36:40.280Z,27.58
2023-05-11T17:39:07.211Z,28.88
2023-05-11T17:41:33.747Z,31.50
2023-05-11T17:44:00.255Z,30.92
2023-05-11T17:46:26.901Z,31.58
2023-05-11T17:48:53.428Z,33.55
2023-05-11T17:51:21.534Z,35.17
2023-05-11T17:53:48.041Z,32.70
2023-05-11T17:56:14.557Z,37.22
2023-05-11T17:58:41.279Z,31.42
2023-05-11T18:01:08.234Z,31.55
2023-05-11T18:03:35.305Z,29.65
2023-05-11T18:06:01.971Z,26.88
2023-05-11T18:08:29.848Z,30.23
2023-05-11T18:10:56.466Z,29.42
2023-05-11T18:13:22.998Z,36.05
2023-05-11T18:15:49.609Z,28.30
2023-05-11T18:18:16.353Z,29.50
2023-05-11T18:20:42.852Z,27.23
2023-05-11T18:23:09.317Z,28.25
2023-05-11T18:25:37.229Z,25.60
2023-05-11T18:28:03.714Z,28.70
2023-05-11T18:30:30.382Z,29.13
2023-05-11T18:32:56.963Z,27.17
2023-05-11T18:35:23.494Z,27.48
2023-05-11T18:37:50.409Z,21.50
2023-05-11T18:40:17.512Z,27.17
2023-05-11T18:42:45.565Z,22.90
2023-05-11T18:45:12.106Z,23.52
2023-05-11T18:47:38.591Z,23.63
2023-05-11T18:50:06.303Z,21.05
2023-05-11T18:52:32.802Z,23.27
2023-05-11T18:54:59.343Z,23.58
2023-05-11T18:57:25.822Z,22.88
2023-05-11T18:59:53.751Z,22.63
2023-05-11T19:02:20.253Z,20.55
2023-05-11T19:04:46.788Z,18.48
2023-05-11T19:07:13.308Z,20.27
2023-05-11T19:09:39.802Z,19.30
2023-05-11T19:12:07.061Z,20.80
2023-05-11T19:14:33.742Z,17.92
2023-05-11T19:17:02.312Z,18.88
2023-05-11T19:19:29.962Z,16.65
2023-05-11T19:21:56.489Z,16.33
2023-05-11T19:24:22.981Z,17.00
2023-05-11T19:27:02.513Z,17.02
2023-05-11T19:29:32.125Z,15.48
2023-05-11T19:31:58.659Z,16.08
2023-05-11T19:34:26.518Z,13.43
2023-05-11T19:36:52.992Z,13.93
2023-05-11T19:39:19.723Z,13.48
2023-05-11T19:41:46.283Z,14.07
2023-05-11T19:44:12.772Z,13.95
2023-05-11T19:46:39.440Z,12.10
2023-05-11T19:49:06.049Z,15.23
2023-05-11T19:51:33.864Z,14.27
2023-05-11T19:54:00.317Z,14.80
2023-05-11T19:56:26.770Z,12.65
2023-05-11T19:58:53.329Z,14.65
2023-05-11T20:01:19.889Z,12.55
2023-05-11T20:03:46.588Z,12.93
2023-05-11T20:06:13.217Z,14.30
2023-05-11T20:08:41.038Z,11.93
2023-05-11T20:11:07.594Z,12.88
2023-05-11T20:13:34.097Z,13.80
2023-05-11T20:16:00.639Z,12.43
2023-05-11T20:18:27.157Z,13.48
2023-05-11T20:20:53.651Z,12.40
2023-05-11T20:23:20.162Z,12.55
2023-05-11T20:25:47.988Z,13.57
2023-05-11T20:28:14.485Z,12.50
2023-05-11T20:30:41.008Z,13.90
2023-05-11T20:35:36.944Z,15.27
2023-05-11T20:38:03.421Z,10.90
2023-05-11T20:40:29.950Z,12.38
2023-05-11T20:42:57.771Z,8.68
2023-05-11T20:45:24.275Z,10.45
2023-05-11T20:47:50.892Z,9.00
2023-05-11T20:50:17.613Z,12.27
2023-05-11T20:52:44.197Z,10.50
2023-05-11T20:55:10.659Z,9.20
2023-05-11T20:57:37.136Z,10.38
2023-05-11T21:00:06.506Z,9.65
2023-05-11T21:02:33.130Z,9.32
2023-05-11T21:04:59.780Z,11.02
2023-05-11T21:07:26.328Z,10.18
2023-05-11T21:09:52.800Z,9.27
2023-05-11T21:12:19.348Z,9.82
2023-05-11T21:14:45.876Z,8.75
2023-05-11T21:17:13.908Z,9.48
2023-05-11T21:19:40.531Z,9.00
2023-05-11T21:22:07.058Z,10.25
2023-05-11T21:24:35.104Z,9.85
2023-05-11T21:27:01.699Z,10.13
2023-05-11T21:29:28.269Z,9.85
2023-05-11T21:31:54.767Z,10.40
2023-05-11T21:34:22.633Z,9.15
2023-05-11T21:36:49.106Z,10.13
2023-05-11T21:39:15.652Z,8.70
2023-05-11T21:41:42.174Z,8.98
2023-05-11T21:44:08.663Z,8.07
2023-05-11T21:46:35.162Z,10.15
2023-05-11T21:49:01.664Z,11.75
2023-05-11T21:51:29.541Z,10.43
2023-05-11T21:53:56.002Z,11.68
2023-05-11T21:56:22.762Z,9.00
2023-05-11T21:58:49.269Z,9.55
2023-05-11T22:01:15.916Z,10.20
2023-05-11T22:03:42.682Z,9.63
2023-05-11T22:06:09.247Z,12.63
2023-05-11T22:08:37.059Z,10.00
2023-05-11T22:11:03.611Z,12.02
2023-05-11T22:13:30.134Z,10.98
2023-05-11T22:15:56.668Z,8.98
2023-05-11T22:18:23.402Z,10.38
2023-05-11T22:20:49.942Z,9.55
2023-05-11T22:23:16.474Z,9.35
2023-05-11T22:25:44.362Z,10.60
2023-05-11T22:28:10.893Z,11.50
2023-05-11T22:30:37.456Z,13.52
2023-05-11T22:33:04.064Z,9.77
2023-05-11T22:35:30.755Z,12.57
2023-05-11T22:37:57.352Z,9.38
2023-05-11T22:40:23.833Z,10.38
2023-05-11T22:42:51.678Z,10.43
2023-05-11T22:45:18.197Z,12.32
2023-05-11T22:47:44.713Z,11.10
2023-05-11T22:50:11.220Z,11.88
2023-05-11T22:52:37.973Z,10.45
2023-05-11T22:55:05.627Z,10.52
2023-05-11T22:57:32.119Z,11.57
2023-05-11T22:59:59.991Z,12.60
2023-05-11T23:02:26.560Z,12.75
2023-05-11T23:04:53.134Z,12.75
2023-05-11T23:07:19.937Z,13.13
2023-05-11T23:09:46.623Z,10.40
2023-05-11T23:12:13.180Z,12.23
2023-05-11T23:14:39.712Z,9.95
2023-05-11T23:17:07.581Z,11.55
2023-05-11T23:19:34.145Z,12.07
2023-05-11T23:22:00.932Z,11.38
2023-05-11T23:24:27.473Z,15.10
2023-05-11T23:26:53.992Z,11.85
2023-05-11T23:29:20.697Z,10.75
2023-05-11T23:31:47.344Z,11.75
2023-05-11T23:34:15.233Z,11.82
2023-05-11T23:36:41.831Z,11.52
2023-05-11T23:39:08.405Z,14.88
2023-05-11T23:41:34.938Z,10.65
2023-05-11T23:44:01.415Z,13.35
2023-05-11T23:46:27.920Z,12.98
2023-05-11T23:48:54.453Z,13.52
2023-05-11T23:51:22.296Z,10.50
2023-05-11T23:53:48.836Z,12.75
2023-05-11T23:56:15.408Z,12.43
2023-05-11T23:58:42.027Z,16.83
